sensor_id;sensor_type;location;lat;lon;timestamp;P1;durP1;ratioP1;P2;durP2;ratioP2
20146;SDS011;10234;50.856;15.716;2024-02-16T00:01:02;15.13;;;7.60;;
20146;SDS011;10234;50.856;15.716;2024-02-16T00:03:31;12.85;;;6.97;;
20146;SDS011;10234;50.856;15.716;2024-02-16T00:05:58;9.88;;;7.00;;
20146;SDS011;10234;50.856;15.716;2024-02-16T00:08:25;12.57;;;8.23;;
20146;SDS011;10234;50.856;15.716;2024-02-16T00:10:54;12.32;;;6.97;;
20146;SDS011;10234;50.856;15.716;2024-02-16T00:13:21;11.98;;;6.93;;
20146;SDS011;10234;50.856;15.716;2024-02-16T00:15:50;8.15;;;5.30;;
20146;SDS011;10234;50.856;15.716;2024-02-16T00:18:17;10.80;;;5.85;;
20146;SDS011;10234;50.856;15.716;2024-02-16T00:20:47;8.63;;;4.75;;
20146;SDS011;10234;50.856;15.716;2024-02-16T00:23:15;8.00;;;4.35;;
20146;SDS011;10234;50.856;15.716;2024-02-16T00:25:44;17.38;;;9.85;;
20146;SDS011;10234;50.856;15.716;2024-02-16T00:28:11;15.30;;;7.95;;
20146;SDS011;10234;50.856;15.716;2024-02-16T00:30:38;14.60;;;7.22;;
20146;SDS011;10234;50.856;15.716;2024-02-16T00:33:08;11.23;;;7.45;;
20146;SDS011;10234;50.856;15.716;2024-02-16T00:35:35;16.67;;;10.05;;
20146;SDS011;10234;50.856;15.716;2024-02-16T00:38:02;23.52;;;11.43;;
20146;SDS011;10234;50.856;15.716;2024-02-16T00:40:30;17.35;;;10.52;;
20146;SDS011;10234;50.856;15.716;2024-02-16T00:42:57;20.17;;;10.88;;
20146;SDS011;10234;50.856;15.716;2024-02-16T00:45:27;20.13;;;10.20;;
20146;SDS011;10234;50.856;15.716;2024-02-16T00:47:54;19.00;;;9.50;;
20146;SDS011;10234;50.856;15.716;2024-02-16T00:50:28;18.65;;;10.25;;
20146;SDS011;10234;50.856;15.716;2024-02-16T00:52:56;12.90;;;7.78;;
20146;SDS011;10234;50.856;15.716;2024-02-16T00:55:25;16.77;;;8.70;;
20146;SDS011;10234;50.856;15.716;2024-02-16T00:57:52;16.77;;;7.53;;
20146;SDS011;10234;50.856;15.716;2024-02-16T01:00:19;15.88;;;8.65;;
20146;SDS011;10234;50.856;15.716;2024-02-16T01:02:48;18.35;;;8.27;;
20146;SDS011;10234;50.856;15.716;2024-02-16T01:05:15;17.48;;;8.10;;
20146;SDS011;10234;50.856;15.716;2024-02-16T01:07:45;13.35;;;7.53;;
20146;SDS011;10234;50.856;15.716;2024-02-16T01:10:12;18.08;;;8.57;;
20146;SDS011;10234;50.856;15.716;2024-02-16T01:12:39;22.13;;;9.57;;
20146;SDS011;10234;50.856;15.716;2024-02-16T01:15:07;15.20;;;9.48;;
20146;SDS011;10234;50.856;15.716;2024-02-16T01:17:35;18.40;;;9.68;;
20146;SDS011;10234;50.856;15.716;2024-02-16T01:20:02;18.50;;;9.88;;
20146;SDS011;10234;50.856;15.716;2024-02-16T01:22:31;19.00;;;8.38;;
20146;SDS011;10234;50.856;15.716;2024-02-16T01:25:00;17.33;;;8.98;;
20146;SDS011;10234;50.856;15.716;2024-02-16T01:27:28;13.30;;;7.78;;
20146;SDS011;10234;50.856;15.716;2024-02-16T01:29:55;14.10;;;7.28;;
20146;SDS011;10234;50.856;15.716;2024-02-16T01:32:22;19.08;;;9.75;;
20146;SDS011;10234;50.856;15.716;2024-02-16T01:34:50;18.08;;;9.05;;
20146;SDS011;10234;50.856;15.716;2024-02-16T01:37:17;15.80;;;8.35;;
20146;SDS011;10234;50.856;15.716;2024-02-16T01:39:44;16.50;;;8.80;;
20146;SDS011;10234;50.856;15.716;2024-02-16T01:42:15;11.80;;;7.07;;
20146;SDS011;10234;50.856;15.716;2024-02-16T01:44:43;15.88;;;9.60;;
20146;SDS011;10234;50.856;15.716;2024-02-16T01:47:10;22.60;;;10.30;;
20146;SDS011;10234;50.856;15.716;2024-02-16T01:49:37;18.70;;;10.48;;
20146;SDS011;10234;50.856;15.716;2024-02-16T01:52:12;16.17;;;9.95;;
20146;SDS011;10234;50.856;15.716;2024-02-16T01:54:39;12.68;;;8.38;;
20146;SDS011;10234;50.856;15.716;2024-02-16T01:57:06;10.25;;;6.47;;
20146;SDS011;10234;50.856;15.716;2024-02-16T01:59:34;10.70;;;7.30;;
20146;SDS011;10234;50.856;15.716;2024-02-16T02:02:02;14.13;;;7.57;;
20146;SDS011;10234;50.856;15.716;2024-02-16T02:04:29;10.40;;;6.53;;
20146;SDS011;10234;50.856;15.716;2024-02-16T02:06:56;10.10;;;6.25;;
20146;SDS011;10234;50.856;15.716;2024-02-16T02:09:23;11.13;;;6.70;;
20146;SDS011;10234;50.856;15.716;2024-02-16T02:11:50;12.57;;;7.57;;
20146;SDS011;10234;50.856;15.716;2024-02-16T02:14:17;11.00;;;6.63;;
20146;SDS011;10234;50.856;15.716;2024-02-16T02:16:49;8.40;;;5.78;;
20146;SDS011;10234;50.856;15.716;2024-02-16T02:19:16;9.50;;;6.20;;
20146;SDS011;10234;50.856;15.716;2024-02-16T02:21:42;9.00;;;4.93;;
20146;SDS011;10234;50.856;15.716;2024-02-16T02:24:11;10.75;;;5.00;;
20146;SDS011;10234;50.856;15.716;2024-02-16T02:26:38;8.25;;;5.03;;
20146;SDS011;10234;50.856;15.716;2024-02-16T02:29:06;10.25;;;5.57;;
20146;SDS011;10234;50.856;15.716;2024-02-16T02:31:33;10.95;;;6.72;;
20146;SDS011;10234;50.856;15.716;2024-02-16T02:34:01;6.80;;;5.05;;
20146;SDS011;10234;50.856;15.716;2024-02-16T02:36:30;8.60;;;5.97;;
20146;SDS011;10234;50.856;15.716;2024-02-16T02:38:58;9.05;;;5.82;;
20146;SDS011;10234;50.856;15.716;2024-02-16T02:41:26;8.77;;;5.70;;
20146;SDS011;10234;50.856;15.716;2024-02-16T02:43:54;11.77;;;6.53;;
20146;SDS011;10234;50.856;15.716;2024-02-16T02:46:27;13.80;;;6.25;;
20146;SDS011;10234;50.856;15.716;2024-02-16T02:48:54;9.80;;;5.22;;
20146;SDS011;10234;50.856;15.716;2024-02-16T02:51:21;8.27;;;5.68;;
20146;SDS011;10234;50.856;15.716;2024-02-16T02:53:48;10.45;;;5.60;;
20146;SDS011;10234;50.856;15.716;2024-02-16T02:56:16;9.88;;;5.63;;
20146;SDS011;10234;50.856;15.716;2024-02-16T02:58:44;9.38;;;5.32;;
20146;SDS011;10234;50.856;15.716;2024-02-16T03:01:11;7.72;;;4.78;;
20146;SDS011;10234;50.856;15.716;2024-02-16T03:03:39;10.30;;;6.00;;
20146;SDS011;10234;50.856;15.716;2024-02-16T03:06:06;11.05;;;6.53;;
20146;SDS011;10234;50.856;15.716;2024-02-16T03:08:33;10.95;;;6.47;;
20146;SDS011;10234;50.856;15.716;2024-02-16T03:11:01;11.18;;;6.80;;
20146;SDS011;10234;50.856;15.716;2024-02-16T03:13:29;9.68;;;6.05;;
20146;SDS011;10234;50.856;15.716;2024-02-16T03:15:57;10.13;;;6.10;;
20146;SDS011;10234;50.856;15.716;2024-02-16T03:18:24;11.05;;;6.70;;
20146;SDS011;10234;50.856;15.716;2024-02-16T03:20:55;9.55;;;5.53;;
20146;SDS011;10234;50.856;15.716;2024-02-16T03:23:22;9.70;;;5.57;;
20146;SDS011;10234;50.856;15.716;2024-02-16T03:25:49;8.50;;;5.18;;
20146;SDS011;10234;50.856;15.716;2024-02-16T03:28:16;7.93;;;4.80;;
20146;SDS011;10234;50.856;15.716;2024-02-16T03:30:43;8.55;;;5.30;;
20146;SDS011;10234;50.856;15.716;2024-02-16T03:33:12;6.78;;;4.82;;
20146;SDS011;10234;50.856;15.716;2024-02-16T03:35:41;8.68;;;5.40;;
20146;SDS011;10234;50.856;15.716;2024-02-16T03:38:09;12.48;;;6.03;;
20146;SDS011;10234;50.856;15.716;2024-02-16T03:40:36;8.65;;;5.05;;
20146;SDS011;10234;50.856;15.716;2024-02-16T03:43:03;8.07;;;5.55;;
20146;SDS011;10234;50.856;15.716;2024-02-16T03:45:30;12.00;;;5.85;;
20146;SDS011;10234;50.856;15.716;2024-02-16T03:47:57;9.25;;;6.38;;
20146;SDS011;10234;50.856;15.716;2024-02-16T03:50:26;7.25;;;4.82;;
20146;SDS011;10234;50.856;15.716;2024-02-16T03:52:53;9.57;;;4.97;;
20146;SDS011;10234;50.856;15.716;2024-02-16T03:55:20;8.20;;;5.57;;
20146;SDS011;10234;50.856;15.716;2024-02-16T03:57:47;6.20;;;5.03;;
20146;SDS011;10234;50.856;15.716;2024-02-16T04:00:14;8.98;;;5.30;;
20146;SDS011;10234;50.856;15.716;2024-02-16T04:02:41;7.30;;;4.85;;
20146;SDS011;10234;50.856;15.716;2024-02-16T04:05:08;7.93;;;4.85;;
20146;SDS011;10234;50.856;15.716;2024-02-16T04:07:37;8.93;;;5.22;;
20146;SDS011;10234;50.856;15.716;2024-02-16T04:10:04;6.88;;;4.22;;
20146;SDS011;10234;50.856;15.716;2024-02-16T04:12:32;8.27;;;5.03;;
20146;SDS011;10234;50.856;15.716;2024-02-16T04:15:02;8.48;;;5.30;;
20146;SDS011;10234;50.856;15.716;2024-02-16T04:17:30;7.82;;;5.18;;
20146;SDS011;10234;50.856;15.716;2024-02-16T04:19:57;7.40;;;4.47;;
20146;SDS011;10234;50.856;15.716;2024-02-16T04:22:24;6.68;;;4.70;;
20146;SDS011;10234;50.856;15.716;2024-02-16T04:24:52;4.85;;;4.05;;
20146;SDS011;10234;50.856;15.716;2024-02-16T04:27:19;7.88;;;4.68;;
20146;SDS011;10234;50.856;15.716;2024-02-16T04:29:49;7.68;;;4.53;;
20146;SDS011;10234;50.856;15.716;2024-02-16T04:32:18;6.68;;;4.35;;
20146;SDS011;10234;50.856;15.716;2024-02-16T04:34:46;6.80;;;4.82;;
20146;SDS011;10234;50.856;15.716;2024-02-16T04:37:14;7.70;;;4.57;;
20146;SDS011;10234;50.856;15.716;2024-02-16T04:39:43;7.30;;;4.40;;
20146;SDS011;10234;50.856;15.716;2024-02-16T04:42:14;6.55;;;4.00;;
20146;SDS011;10234;50.856;15.716;2024-02-16T04:44:42;8.65;;;4.63;;
20146;SDS011;10234;50.856;15.716;2024-02-16T04:47:09;7.35;;;4.38;;
20146;SDS011;10234;50.856;15.716;2024-02-16T04:49:37;7.45;;;5.00;;
20146;SDS011;10234;50.856;15.716;2024-02-16T04:52:04;6.22;;;4.13;;
20146;SDS011;10234;50.856;15.716;2024-02-16T04:54:33;8.00;;;4.30;;
20146;SDS011;10234;50.856;15.716;2024-02-16T04:57:05;5.38;;;3.95;;
20146;SDS011;10234;50.856;15.716;2024-02-16T04:59:33;6.75;;;3.83;;
20146;SDS011;10234;50.856;15.716;2024-02-16T05:02:01;4.78;;;3.25;;
20146;SDS011;10234;50.856;15.716;2024-02-16T05:04:29;4.82;;;3.92;;
20146;SDS011;10234;50.856;15.716;2024-02-16T05:06:55;7.20;;;3.90;;
20146;SDS011;10234;50.856;15.716;2024-02-16T05:09:23;6.30;;;4.07;;
20146;SDS011;10234;50.856;15.716;2024-02-16T05:11:51;5.07;;;4.22;;
20146;SDS011;10234;50.856;15.716;2024-02-16T05:14:18;6.63;;;3.80;;
20146;SDS011;10234;50.856;15.716;2024-02-16T05:16:47;7.57;;;4.28;;
20146;SDS011;10234;50.856;15.716;2024-02-16T05:19:13;8.05;;;4.78;;
20146;SDS011;10234;50.856;15.716;2024-02-16T05:21:40;7.13;;;4.97;;
20146;SDS011;10234;50.856;15.716;2024-02-16T05:24:09;9.43;;;5.85;;
20146;SDS011;10234;50.856;15.716;2024-02-16T05:26:36;8.05;;;4.72;;
20146;SDS011;10234;50.856;15.716;2024-02-16T05:29:03;9.63;;;5.97;;
20146;SDS011;10234;50.856;15.716;2024-02-16T05:31:30;7.03;;;5.10;;
20146;SDS011;10234;50.856;15.716;2024-02-16T05:33:58;8.15;;;4.95;;
20146;SDS011;10234;50.856;15.716;2024-02-16T05:36:26;7.45;;;4.80;;
20146;SDS011;10234;50.856;15.716;2024-02-16T05:38:56;8.77;;;4.47;;
20146;SDS011;10234;50.856;15.716;2024-02-16T05:41:34;6.80;;;4.05;;
20146;SDS011;10234;50.856;15.716;2024-02-16T05:44:03;7.95;;;4.60;;
20146;SDS011;10234;50.856;15.716;2024-02-16T05:46:30;7.47;;;3.95;;
20146;SDS011;10234;50.856;15.716;2024-02-16T05:48:59;7.90;;;4.40;;
20146;SDS011;10234;50.856;15.716;2024-02-16T05:51:27;7.70;;;4.68;;
20146;SDS011;10234;50.856;15.716;2024-02-16T05:54:00;7.25;;;4.43;;
20146;SDS011;10234;50.856;15.716;2024-02-16T05:56:27;7.10;;;3.80;;
20146;SDS011;10234;50.856;15.716;2024-02-16T05:58:54;7.05;;;4.28;;
20146;SDS011;10234;50.856;15.716;2024-02-16T06:01:21;7.70;;;3.88;;
20146;SDS011;10234;50.856;15.716;2024-02-16T06:03:47;6.38;;;3.92;;
20146;SDS011;10234;50.856;15.716;2024-02-16T06:06:16;9.32;;;5.47;;
20146;SDS011;10234;50.856;15.716;2024-02-16T06:08:44;5.78;;;4.15;;
20146;SDS011;10234;50.856;15.716;2024-02-16T06:11:20;9.27;;;5.43;;
20146;SDS011;10234;50.856;15.716;2024-02-16T06:13:48;11.13;;;5.65;;
20146;SDS011;10234;50.856;15.716;2024-02-16T06:16:16;7.38;;;4.43;;
20146;SDS011;10234;50.856;15.716;2024-02-16T06:18:42;4.28;;;3.67;;
20146;SDS011;10234;50.856;15.716;2024-02-16T06:21:10;7.07;;;4.18;;
20146;SDS011;10234;50.856;15.716;2024-02-16T06:23:39;6.18;;;4.18;;
20146;SDS011;10234;50.856;15.716;2024-02-16T06:26:14;5.57;;;3.88;;
20146;SDS011;10234;50.856;15.716;2024-02-16T06:28:42;5.88;;;3.67;;
20146;SDS011;10234;50.856;15.716;2024-02-16T06:31:09;7.05;;;4.18;;
20146;SDS011;10234;50.856;15.716;2024-02-16T06:33:37;8.48;;;4.07;;
20146;SDS011;10234;50.856;15.716;2024-02-16T06:36:04;7.20;;;4.28;;
20146;SDS011;10234;50.856;15.716;2024-02-16T06:38:32;6.57;;;4.68;;
20146;SDS011;10234;50.856;15.716;2024-02-16T06:41:00;6.25;;;4.07;;
20146;SDS011;10234;50.856;15.716;2024-02-16T06:43:28;5.43;;;3.17;;
20146;SDS011;10234;50.856;15.716;2024-02-16T06:45:56;6.70;;;4.95;;
20146;SDS011;10234;50.856;15.716;2024-02-16T06:48:31;6.28;;;3.72;;
20146;SDS011;10234;50.856;15.716;2024-02-16T06:51:03;7.38;;;4.03;;
20146;SDS011;10234;50.856;15.716;2024-02-16T06:53:41;6.90;;;4.85;;
20146;SDS011;10234;50.856;15.716;2024-02-16T06:56:09;7.57;;;4.65;;
20146;SDS011;10234;50.856;15.716;2024-02-16T06:58:36;6.88;;;4.63;;
20146;SDS011;10234;50.856;15.716;2024-02-16T07:01:03;8.20;;;5.38;;
20146;SDS011;10234;50.856;15.716;2024-02-16T07:03:30;7.00;;;4.38;;
20146;SDS011;10234;50.856;15.716;2024-02-16T07:05:57;6.60;;;4.70;;
20146;SDS011;10234;50.856;15.716;2024-02-16T07:08:29;76.00;;;7.18;;
20146;SDS011;10234;50.856;15.716;2024-02-16T07:10:56;20.95;;;4.53;;
20146;SDS011;10234;50.856;15.716;2024-02-16T07:13:25;7.07;;;4.20;;
20146;SDS011;10234;50.856;15.716;2024-02-16T07:15:52;5.93;;;4.15;;
20146;SDS011;10234;50.856;15.716;2024-02-16T07:18:19;6.80;;;5.00;;
20146;SDS011;10234;50.856;15.716;2024-02-16T07:20:47;6.25;;;4.20;;
20146;SDS011;10234;50.856;15.716;2024-02-16T07:23:14;7.78;;;4.60;;
20146;SDS011;10234;50.856;15.716;2024-02-16T07:25:41;6.85;;;4.88;;
20146;SDS011;10234;50.856;15.716;2024-02-16T07:28:08;7.57;;;5.40;;
20146;SDS011;10234;50.856;15.716;2024-02-16T07:30:37;8.77;;;5.70;;
20146;SDS011;10234;50.856;15.716;2024-02-16T07:33:04;7.78;;;4.90;;
20146;SDS011;10234;50.856;15.716;2024-02-16T07:35:32;9.77;;;5.97;;
20146;SDS011;10234;50.856;15.716;2024-02-16T07:38:00;9.35;;;6.50;;
20146;SDS011;10234;50.856;15.716;2024-02-16T07:40:28;7.85;;;5.30;;
20146;SDS011;10234;50.856;15.716;2024-02-16T07:42:57;9.02;;;5.75;;
20146;SDS011;10234;50.856;15.716;2024-02-16T07:45:25;9.05;;;6.25;;
20146;SDS011;10234;50.856;15.716;2024-02-16T07:47:54;9.20;;;6.75;;
20146;SDS011;10234;50.856;15.716;2024-02-16T07:50:22;9.77;;;6.45;;
20146;SDS011;10234;50.856;15.716;2024-02-16T07:52:50;7.70;;;5.43;;
20146;SDS011;10234;50.856;15.716;2024-02-16T07:55:17;9.07;;;6.40;;
20146;SDS011;10234;50.856;15.716;2024-02-16T07:57:48;8.52;;;6.35;;
20146;SDS011;10234;50.856;15.716;2024-02-16T08:00:19;9.65;;;6.70;;
20146;SDS011;10234;50.856;15.716;2024-02-16T08:02:46;10.90;;;7.20;;
20146;SDS011;10234;50.856;15.716;2024-02-16T08:05:14;9.52;;;7.00;;
20146;SDS011;10234;50.856;15.716;2024-02-16T08:07:45;13.13;;;6.20;;
20146;SDS011;10234;50.856;15.716;2024-02-16T08:10:13;12.85;;;6.47;;
20146;SDS011;10234;50.856;15.716;2024-02-16T08:12:40;11.88;;;6.63;;
20146;SDS011;10234;50.856;15.716;2024-02-16T08:15:07;10.55;;;6.32;;
20146;SDS011;10234;50.856;15.716;2024-02-16T08:17:36;9.82;;;6.90;;
20146;SDS011;10234;50.856;15.716;2024-02-16T08:20:06;11.23;;;6.60;;
20146;SDS011;10234;50.856;15.716;2024-02-16T08:22:36;7.32;;;6.38;;
20146;SDS011;10234;50.856;15.716;2024-02-16T08:25:03;9.35;;;6.38;;
20146;SDS011;10234;50.856;15.716;2024-02-16T08:27:30;11.75;;;7.47;;
20146;SDS011;10234;50.856;15.716;2024-02-16T08:30:00;10.23;;;6.35;;
20146;SDS011;10234;50.856;15.716;2024-02-16T08:32:28;8.13;;;6.03;;
20146;SDS011;10234;50.856;15.716;2024-02-16T08:34:55;8.75;;;6.13;;
20146;SDS011;10234;50.856;15.716;2024-02-16T08:37:23;10.02;;;6.10;;
20146;SDS011;10234;50.856;15.716;2024-02-16T08:39:57;10.75;;;6.88;;
20146;SDS011;10234;50.856;15.716;2024-02-16T08:42:26;8.95;;;6.25;;
20146;SDS011;10234;50.856;15.716;2024-02-16T08:44:53;7.78;;;6.25;;
20146;SDS011;10234;50.856;15.716;2024-02-16T08:47:20;10.60;;;7.10;;
20146;SDS011;10234;50.856;15.716;2024-02-16T08:49:47;13.40;;;7.35;;
20146;SDS011;10234;50.856;15.716;2024-02-16T08:52:15;9.55;;;6.78;;
20146;SDS011;10234;50.856;15.716;2024-02-16T08:54:42;12.27;;;7.78;;
20146;SDS011;10234;50.856;15.716;2024-02-16T08:57:10;8.27;;;6.15;;
20146;SDS011;10234;50.856;15.716;2024-02-16T08:59:37;9.45;;;6.07;;
20146;SDS011;10234;50.856;15.716;2024-02-16T09:02:04;8.93;;;6.25;;
20146;SDS011;10234;50.856;15.716;2024-02-16T09:04:32;8.93;;;6.30;;
20146;SDS011;10234;50.856;15.716;2024-02-16T09:06:59;11.73;;;7.80;;
20146;SDS011;10234;50.856;15.716;2024-02-16T09:09:26;8.73;;;6.43;;
20146;SDS011;10234;50.856;15.716;2024-02-16T09:11:53;11.05;;;7.38;;
20146;SDS011;10234;50.856;15.716;2024-02-16T09:14:23;10.63;;;7.30;;
20146;SDS011;10234;50.856;15.716;2024-02-16T09:16:54;8.70;;;7.32;;
20146;SDS011;10234;50.856;15.716;2024-02-16T09:19:24;12.20;;;7.53;;
20146;SDS011;10234;50.856;15.716;2024-02-16T09:21:51;12.45;;;8.38;;
20146;SDS011;10234;50.856;15.716;2024-02-16T09:24:19;9.02;;;7.18;;
20146;SDS011;10234;50.856;15.716;2024-02-16T09:26:46;10.25;;;8.15;;
20146;SDS011;10234;50.856;15.716;2024-02-16T09:29:13;10.60;;;7.68;;
20146;SDS011;10234;50.856;15.716;2024-02-16T09:31:41;9.85;;;7.55;;
20146;SDS011;10234;50.856;15.716;2024-02-16T09:34:09;11.85;;;7.03;;
20146;SDS011;10234;50.856;15.716;2024-02-16T09:36:36;8.73;;;6.25;;
20146;SDS011;10234;50.856;15.716;2024-02-16T09:39:03;10.07;;;6.57;;
20146;SDS011;10234;50.856;15.716;2024-02-16T09:41:31;6.72;;;5.63;;
20146;SDS011;10234;50.856;15.716;2024-02-16T09:44:01;9.32;;;6.25;;
20146;SDS011;10234;50.856;15.716;2024-02-16T09:46:28;9.75;;;6.82;;
20146;SDS011;10234;50.856;15.716;2024-02-16T09:49:01;8.27;;;5.68;;
20146;SDS011;10234;50.856;15.716;2024-02-16T09:51:29;8.15;;;5.78;;
20146;SDS011;10234;50.856;15.716;2024-02-16T09:53:56;5.93;;;5.03;;
20146;SDS011;10234;50.856;15.716;2024-02-16T09:56:28;7.97;;;5.45;;
20146;SDS011;10234;50.856;15.716;2024-02-16T09:58:55;6.80;;;5.10;;
20146;SDS011;10234;50.856;15.716;2024-02-16T10:01:22;5.32;;;4.78;;
20146;SDS011;10234;50.856;15.716;2024-02-16T10:03:53;10.68;;;5.43;;
20146;SDS011;10234;50.856;15.716;2024-02-16T10:06:24;11.70;;;8.52;;
20146;SDS011;10234;50.856;15.716;2024-02-16T10:08:51;15.25;;;12.60;;
20146;SDS011;10234;50.856;15.716;2024-02-16T10:11:21;10.27;;;7.65;;
20146;SDS011;10234;50.856;15.716;2024-02-16T10:13:55;6.22;;;4.30;;
20146;SDS011;10234;50.856;15.716;2024-02-16T10:16:23;7.75;;;4.35;;
20146;SDS011;10234;50.856;15.716;2024-02-16T10:18:51;6.20;;;4.45;;
20146;SDS011;10234;50.856;15.716;2024-02-16T10:21:26;6.05;;;3.92;;
20146;SDS011;10234;50.856;15.716;2024-02-16T10:23:57;5.22;;;4.10;;
20146;SDS011;10234;50.856;15.716;2024-02-16T10:26:26;5.32;;;3.63;;
20146;SDS011;10234;50.856;15.716;2024-02-16T10:28:54;5.43;;;3.33;;
20146;SDS011;10234;50.856;15.716;2024-02-16T10:31:22;5.25;;;3.47;;
20146;SDS011;10234;50.856;15.716;2024-02-16T10:33:56;7.75;;;3.33;;
20146;SDS011;10234;50.856;15.716;2024-02-16T10:36:26;4.05;;;3.47;;
20146;SDS011;10234;50.856;15.716;2024-02-16T10:38:55;4.93;;;2.75;;
20146;SDS011;10234;50.856;15.716;2024-02-16T10:41:26;5.05;;;2.72;;
20146;SDS011;10234;50.856;15.716;2024-02-16T10:43:57;3.72;;;2.85;;
20146;SDS011;10234;50.856;15.716;2024-02-16T10:46:27;3.95;;;2.65;;
20146;SDS011;10234;50.856;15.716;2024-02-16T10:48:54;6.55;;;3.08;;
20146;SDS011;10234;50.856;15.716;2024-02-16T10:51:25;2.88;;;2.50;;
20146;SDS011;10234;50.856;15.716;2024-02-16T10:54:00;4.47;;;2.58;;
20146;SDS011;10234;50.856;15.716;2024-02-16T10:56:33;2.97;;;2.40;;
20146;SDS011;10234;50.856;15.716;2024-02-16T10:59:01;5.10;;;2.78;;
20146;SDS011;10234;50.856;15.716;2024-02-16T11:01:32;2.67;;;2.20;;
20146;SDS011;10234;50.856;15.716;2024-02-16T11:04:03;2.42;;;2.13;;
20146;SDS011;10234;50.856;15.716;2024-02-16T11:06:45;3.20;;;2.25;;
20146;SDS011;10234;50.856;15.716;2024-02-16T11:09:22;4.07;;;2.35;;
20146;SDS011;10234;50.856;15.716;2024-02-16T11:11:52;2.35;;;2.10;;
20146;SDS011;10234;50.856;15.716;2024-02-16T11:14:20;4.55;;;2.20;;
20146;SDS011;10234;50.856;15.716;2024-02-16T11:16:48;2.80;;;2.38;;
20146;SDS011;10234;50.856;15.716;2024-02-16T11:19:16;2.83;;;2.28;;
20146;SDS011;10234;50.856;15.716;2024-02-16T11:24:37;2.30;;;2.10;;
20146;SDS011;10234;50.856;15.716;2024-02-16T11:27:09;3.40;;;2.80;;
20146;SDS011;10234;50.856;15.716;2024-02-16T11:29:37;2.50;;;2.10;;
20146;SDS011;10234;50.856;15.716;2024-02-16T11:32:05;3.58;;;2.55;;
20146;SDS011;10234;50.856;15.716;2024-02-16T11:34:33;3.95;;;2.50;;
20146;SDS011;10234;50.856;15.716;2024-02-16T11:37:04;2.50;;;2.30;;
20146;SDS011;10234;50.856;15.716;2024-02-16T11:39:32;3.13;;;2.85;;
20146;SDS011;10234;50.856;15.716;2024-02-16T11:42:01;3.35;;;2.70;;
20146;SDS011;10234;50.856;15.716;2024-02-16T11:44:31;4.53;;;2.38;;
20146;SDS011;10234;50.856;15.716;2024-02-16T11:46:59;5.18;;;2.75;;
20146;SDS011;10234;50.856;15.716;2024-02-16T11:49:32;3.70;;;2.65;;
20146;SDS011;10234;50.856;15.716;2024-02-16T11:51:59;3.97;;;2.22;;
20146;SDS011;10234;50.856;15.716;2024-02-16T11:54:28;2.55;;;2.22;;
20146;SDS011;10234;50.856;15.716;2024-02-16T11:56:56;5.05;;;2.45;;
20146;SDS011;10234;50.856;15.716;2024-02-16T11:59:23;2.75;;;1.83;;
20146;SDS011;10234;50.856;15.716;2024-02-16T12:01:52;2.33;;;1.80;;
20146;SDS011;10234;50.856;15.716;2024-02-16T12:04:22;2.13;;;1.88;;
20146;SDS011;10234;50.856;15.716;2024-02-16T12:06:52;3.83;;;2.22;;
20146;SDS011;10234;50.856;15.716;2024-02-16T12:09:22;4.68;;;2.92;;
20146;SDS011;10234;50.856;15.716;2024-02-16T12:11:57;3.10;;;2.38;;
20146;SDS011;10234;50.856;15.716;2024-02-16T12:14:27;2.88;;;2.50;;
20146;SDS011;10234;50.856;15.716;2024-02-16T12:16:55;2.78;;;2.33;;
20146;SDS011;10234;50.856;15.716;2024-02-16T12:19:23;5.75;;;2.70;;
20146;SDS011;10234;50.856;15.716;2024-02-16T12:21:50;5.40;;;2.70;;
20146;SDS011;10234;50.856;15.716;2024-02-16T12:24:18;3.95;;;2.80;;
20146;SDS011;10234;50.856;15.716;2024-02-16T12:26:46;3.45;;;2.40;;
20146;SDS011;10234;50.856;15.716;2024-02-16T12:29:14;3.40;;;2.70;;
20146;SDS011;10234;50.856;15.716;2024-02-16T12:31:41;3.45;;;2.92;;
20146;SDS011;10234;50.856;15.716;2024-02-16T12:34:09;5.18;;;2.90;;
20146;SDS011;10234;50.856;15.716;2024-02-16T12:36:38;3.53;;;2.67;;
20146;SDS011;10234;50.856;15.716;2024-02-16T12:39:05;3.40;;;2.58;;
20146;SDS011;10234;50.856;15.716;2024-02-16T12:41:34;2.65;;;2.38;;
20146;SDS011;10234;50.856;15.716;2024-02-16T12:44:02;4.75;;;2.55;;
20146;SDS011;10234;50.856;15.716;2024-02-16T12:46:29;4.82;;;2.90;;
20146;SDS011;10234;50.856;15.716;2024-02-16T12:48:56;4.10;;;2.63;;
20146;SDS011;10234;50.856;15.716;2024-02-16T12:51:23;4.53;;;2.70;;
20146;SDS011;10234;50.856;15.716;2024-02-16T12:53:53;3.45;;;2.38;;
20146;SDS011;10234;50.856;15.716;2024-02-16T12:56:21;6.07;;;2.70;;
20146;SDS011;10234;50.856;15.716;2024-02-16T12:58:48;3.25;;;2.50;;
20146;SDS011;10234;50.856;15.716;2024-02-16T13:01:18;2.60;;;2.40;;
20146;SDS011;10234;50.856;15.716;2024-02-16T13:03:46;3.90;;;2.47;;
20146;SDS011;10234;50.856;15.716;2024-02-16T13:06:13;3.45;;;2.35;;
20146;SDS011;10234;50.856;15.716;2024-02-16T13:08:41;4.00;;;2.83;;
20146;SDS011;10234;50.856;15.716;2024-02-16T13:11:08;3.53;;;2.50;;
20146;SDS011;10234;50.856;15.716;2024-02-16T13:13:35;3.50;;;2.40;;
20146;SDS011;10234;50.856;15.716;2024-02-16T13:16:01;3.40;;;2.50;;
20146;SDS011;10234;50.856;15.716;2024-02-16T13:18:30;7.05;;;2.92;;
20146;SDS011;10234;50.856;15.716;2024-02-16T13:20:57;3.92;;;2.60;;
20146;SDS011;10234;50.856;15.716;2024-02-16T13:23:24;6.50;;;4.13;;
20146;SDS011;10234;50.856;15.716;2024-02-16T13:25:51;6.38;;;4.03;;
20146;SDS011;10234;50.856;15.716;2024-02-16T13:28:20;3.70;;;2.30;;
20146;SDS011;10234;50.856;15.716;2024-02-16T13:30:47;1.30;;;1.02;;
20146;SDS011;10234;50.856;15.716;2024-02-16T13:33:14;1.67;;;0.85;;
20146;SDS011;10234;50.856;15.716;2024-02-16T13:35:42;1.88;;;1.40;;
20146;SDS011;10234;50.856;15.716;2024-02-16T13:38:09;1.25;;;1.00;;
20146;SDS011;10234;50.856;15.716;2024-02-16T13:40:36;1.20;;;0.70;;
20146;SDS011;10234;50.856;15.716;2024-02-16T13:43:03;1.75;;;0.80;;
20146;SDS011;10234;50.856;15.716;2024-02-16T13:45:46;1.58;;;1.05;;
20146;SDS011;10234;50.856;15.716;2024-02-16T13:48:15;0.90;;;0.90;;
20146;SDS011;10234;50.856;15.716;2024-02-16T13:50:44;0.90;;;0.80;;
20146;SDS011;10234;50.856;15.716;2024-02-16T13:53:12;0.73;;;0.70;;
20146;SDS011;10234;50.856;15.716;2024-02-16T13:55:39;1.00;;;0.80;;
20146;SDS011;10234;50.856;15.716;2024-02-16T13:58:07;0.80;;;0.80;;
20146;SDS011;10234;50.856;15.716;2024-02-16T14:00:34;1.35;;;0.82;;
20146;SDS011;10234;50.856;15.716;2024-02-16T14:03:02;2.15;;;1.10;;
20146;SDS011;10234;50.856;15.716;2024-02-16T14:05:30;2.80;;;1.25;;
20146;SDS011;10234;50.856;15.716;2024-02-16T14:07:59;1.17;;;0.90;;
20146;SDS011;10234;50.856;15.716;2024-02-16T14:10:26;2.17;;;0.82;;
20146;SDS011;10234;50.856;15.716;2024-02-16T14:12:53;1.92;;;0.93;;
20146;SDS011;10234;50.856;15.716;2024-02-16T14:15:20;1.05;;;1.02;;
20146;SDS011;10234;50.856;15.716;2024-02-16T14:17:47;1.00;;;0.90;;
20146;SDS011;10234;50.856;15.716;2024-02-16T14:20:17;2.83;;;1.77;;
20146;SDS011;10234;50.856;15.716;2024-02-16T14:22:46;4.47;;;2.40;;
20146;SDS011;10234;50.856;15.716;2024-02-16T14:25:16;3.22;;;2.25;;
20146;SDS011;10234;50.856;15.716;2024-02-16T14:27:44;4.72;;;2.60;;
20146;SDS011;10234;50.856;15.716;2024-02-16T14:30:13;3.72;;;2.53;;
20146;SDS011;10234;50.856;15.716;2024-02-16T14:32:41;2.65;;;2.30;;
20146;SDS011;10234;50.856;15.716;2024-02-16T14:35:09;3.85;;;2.38;;
20146;SDS011;10234;50.856;15.716;2024-02-16T14:37:37;3.80;;;3.45;;
20146;SDS011;10234;50.856;15.716;2024-02-16T14:40:06;5.15;;;3.13;;